Time;durP1;ratioP1;P1;durP2;ratioP2;P2;SDS_P1;SDS_P2;PMS_P1;PMS_P2;Temp;Humidity;BMP_temperature;BMP_pressure;BME280_temperature;BME280_humidity;BME280_pressure;Samples;Min_cycle;Max_cycle;Signal;HPM_P1;HPM_P2
2021/06/13 00:00:42;;;;;;;10.65;4.30;;;15.50;79.00;;;;;;5178637;27;20073;-92
2021/06/13 00:03:08;;;;;;;9.10;4.47;;;15.40;79.00;;;;;;5179137;27;20042;-91
2021/06/13 00:05:34;;;;;;;8.07;4.05;;;15.40;79.30;;;;;;5177870;27;20046;-91
2021/06/13 00:08:00;;;;;;;10.23;4.30;;;15.40;79.40;;;;;;5178981;27;20050;-93
2021/06/13 00:10:26;;;;;;;8.32;4.30;;;15.30;79.50;;;;;;5178418;27;20446;-92
2021/06/13 00:12:51;;;;;;;11.50;4.70;;;15.30;79.40;;;;;;5179103;27;20042;-93
2021/06/13 00:15:21;;;;;;;11.20;4.60;;;15.20;79.50;;;;;;5179337;27;20046;-91
2021/06/13 00:17:47;;;;;;;10.35;4.22;;;15.20;79.60;;;;;;5178276;27;20069;-92
2021/06/13 00:20:17;;;;;;;10.13;4.40;;;15.20;79.90;;;;;;5178748;27;20049;-92
2021/06/13 00:22:43;;;;;;;8.68;4.00;;;15.10;79.90;;;;;;5178072;27;20050;-91
2021/06/13 00:25:10;;;;;;;11.05;4.80;;;15.10;80.00;;;;;;5175307;27;20105;-91
2021/06/13 00:27:36;;;;;;;7.78;4.50;;;15.10;79.80;;;;;;5177299;27;20490;-92
2021/06/13 00:30:04;;;;;;;11.65;4.32;;;15.00;80.10;;;;;;5177277;27;20074;-92
2021/06/13 00:32:30;;;;;;;10.18;4.80;;;15.00;80.30;;;;;;5177581;27;20091;-90
2021/06/13 00:34:56;;;;;;;11.05;4.63;;;14.90;80.40;;;;;;5178418;27;20042;-92
2021/06/13 00:37:22;;;;;;;11.15;4.32;;;14.90;80.40;;;;;;5178204;27;20141;-91
2021/06/13 00:39:47;;;;;;;10.13;4.47;;;14.90;80.50;;;;;;5176932;27;20170;-92
2021/06/13 00:42:13;;;;;;;12.40;5.18;;;14.90;80.50;;;;;;5177861;27;20503;-90
2021/06/13 00:44:39;;;;;;;10.68;4.55;;;14.80;80.70;;;;;;5175026;27;20557;-91
2021/06/13 00:47:04;;;;;;;10.80;4.43;;;14.80;80.80;;;;;;5177711;27;20133;-92
2021/06/13 00:49:30;;;;;;;11.70;5.10;;;14.70;80.90;;;;;;5161278;27;20046;-92
2021/06/13 00:51:55;;;;;;;11.27;4.80;;;14.70;80.90;;;;;;5157216;27;20051;-91
2021/06/13 00:54:22;;;;;;;9.30;4.85;;;14.70;80.70;;;;;;5156889;27;20371;-92
2021/06/13 00:56:48;;;;;;;12.73;5.38;;;14.70;80.90;;;;;;5157695;27;20047;-93
2021/06/13 00:59:15;;;;;;;9.50;4.82;;;14.60;81.00;;;;;;5157288;27;20130;-91
2021/06/13 01:01:40;;;;;;;10.95;4.80;;;14.60;80.90;;;;;;5156612;27;20077;-92
2021/06/13 01:04:07;;;;;;;10.52;4.78;;;14.60;80.70;;;;;;5172361;27;20382;-91
2021/06/13 01:07:05;;;;;;;10.63;5.13;;;14.50;80.60;;;;;;5177591;27;20050;-91
2021/06/13 01:09:34;;;;;;;10.77;4.88;;;14.50;79.30;;;;;;5177442;27;20062;-91
2021/06/13 01:12:09;;;;;;;13.52;4.80;;;14.40;80.50;;;;;;5177748;27;20390;-93
2021/06/13 01:14:40;;;;;;;11.75;5.07;;;14.40;80.40;;;;;;5176689;27;20053;-93
2021/06/13 01:17:15;;;;;;;11.18;5.30;;;14.40;80.80;;;;;;5177908;27;20058;-91
2021/06/13 01:19:54;;;;;;;11.77;5.40;;;14.30;80.70;;;;;;5177690;27;20046;-92
2021/06/13 01:22:26;;;;;;;8.90;4.60;;;14.30;81.00;;;;;;5176171;27;20137;-92
2021/06/13 01:25:28;;;;;;;11.25;5.00;;;14.30;81.00;;;;;;5177494;27;20075;-92
2021/06/13 01:28:31;;;;;;;11.38;4.95;;;14.20;80.30;;;;;;5177309;27;20058;-90
2021/06/13 01:30:59;;;;;;;10.85;5.63;;;14.10;80.10;;;;;;5176165;27;20078;-90
2021/06/13 01:33:25;;;;;;;11.55;5.20;;;14.10;81.00;;;;;;5175267;27;20050;-90
2021/06/13 01:35:55;;;;;;;11.85;5.38;;;14.10;80.90;;;;;;5175232;27;20485;-90
2021/06/13 01:38:21;;;;;;;9.98;4.78;;;14.10;81.10;;;;;;5177257;27;20047;-91
2021/06/13 01:40:47;;;;;;;11.23;5.32;;;14.10;81.50;;;;;;5177318;27;20046;-91
2021/06/13 01:43:15;;;;;;;12.07;5.22;;;14.10;81.50;;;;;;5163565;27;20494;-91
2021/06/13 01:45:43;;;;;;;10.90;4.78;;;14.00;81.40;;;;;;5155686;27;20552;-92
2021/06/13 01:48:12;;;;;;;10.98;5.18;;;14.00;81.30;;;;;;5156276;27;20573;-92
2021/06/13 01:50:39;;;;;;;10.82;5.50;;;13.90;81.50;;;;;;5161434;27;20050;-90
2021/06/13 01:53:10;;;;;;;9.88;5.07;;;13.90;81.60;;;;;;5176685;27;20069;-92
2021/06/13 01:55:36;;;;;;;10.23;5.30;;;13.90;82.30;;;;;;5176688;27;20049;-92
2021/06/13 01:58:03;;;;;;;10.82;5.53;;;13.90;81.60;;;;;;5175945;27;20129;-91
2021/06/13 02:00:30;;;;;;;13.30;5.47;;;13.80;81.70;;;;;;5166530;27;20528;-92
2021/06/13 02:02:57;;;;;;;8.25;4.93;;;13.80;81.60;;;;;;5176091;27;20426;-91
2021/06/13 02:05:24;;;;;;;9.82;5.35;;;13.80;82.30;;;;;;5176616;27;20050;-92
2021/06/13 02:07:53;;;;;;;10.45;5.20;;;13.70;81.50;;;;;;5176671;27;20045;-92
2021/06/13 02:10:21;;;;;;;11.05;5.30;;;13.70;81.70;;;;;;5175633;27;20054;-90
2021/06/13 02:12:48;;;;;;;12.10;5.40;;;13.70;81.80;;;;;;5176535;27;20125;-93
2021/06/13 02:15:18;;;;;;;9.40;5.20;;;13.70;81.80;;;;;;5176434;27;20046;-92
2021/06/13 02:17:47;;;;;;;10.20;5.22;;;13.60;81.80;;;;;;5175977;27;20121;-94
2021/06/13 02:20:13;;;;;;;11.32;5.60;;;13.60;81.70;;;;;;5176677;27;20042;-92
2021/06/13 02:22:41;;;;;;;10.52;5.32;;;13.60;81.70;;;;;;5176767;27;20098;-92
2021/06/13 02:25:08;;;;;;;11.57;5.57;;;13.60;81.60;;;;;;5176018;27;20042;-92
2021/06/13 02:27:36;;;;;;;11.32;5.60;;;13.50;81.20;;;;;;5176369;27;20038;-91
2021/06/13 02:30:05;;;;;;;8.88;5.20;;;13.50;81.20;;;;;;5175805;27;20049;-91
2021/06/13 02:32:34;;;;;;;10.60;5.38;;;13.50;81.20;;;;;;5174749;27;20042;-91
2021/06/13 02:35:01;;;;;;;11.68;5.60;;;13.40;81.10;;;;;;5176180;27;20046;-92
2021/06/13 02:37:27;;;;;;;12.05;5.60;;;13.40;81.30;;;;;;5174726;27;20413;-91
2021/06/13 02:39:53;;;;;;;12.93;5.60;;;13.40;81.40;;;;;;5173447;27;20050;-91
2021/06/13 02:42:19;;;;;;;11.48;5.60;;;13.30;81.30;;;;;;5175050;27;20530;-93
2021/06/13 02:44:45;;;;;;;11.10;5.78;;;13.30;81.40;;;;;;5176245;27;20050;-91
2021/06/13 02:47:13;;;;;;;13.13;5.82;;;13.30;81.40;;;;;;5175044;27;20508;-91
2021/06/13 02:49:39;;;;;;;12.30;5.60;;;13.20;81.30;;;;;;5175802;27;20046;-93
2021/06/13 02:52:40;;;;;;;11.45;5.60;;;13.20;81.90;;;;;;5155807;27;20409;-91
2021/06/13 02:55:15;;;;;;;11.25;5.28;;;13.10;81.50;;;;;;5155468;27;20053;-92
2021/06/13 02:57:46;;;;;;;10.55;5.32;;;13.10;82.00;;;;;;5154902;27;20482;-92
2021/06/13 03:00:13;;;;;;;11.02;5.70;;;13.10;82.10;;;;;;5154468;27;20050;-93
2021/06/13 03:02:43;;;;;;;12.18;5.47;;;13.10;82.20;;;;;;5154563;27;20046;-91
2021/06/13 03:05:11;;;;;;;13.38;5.55;;;13.10;82.50;;;;;;5154642;27;20106;-92
2021/06/13 03:07:37;;;;;;;9.90;5.40;;;13.00;82.50;;;;;;5153999;27;20050;-92
2021/06/13 03:10:07;;;;;;;10.77;5.70;;;13.00;82.50;;;;;;5159237;27;20043;-92
2021/06/13 03:12:35;;;;;;;12.38;5.60;;;13.00;82.80;;;;;;5175766;27;20072;-92
2021/06/13 03:15:01;;;;;;;10.55;5.55;;;13.00;82.60;;;;;;5175026;27;20397;-93
2021/06/13 03:17:28;;;;;;;11.25;5.30;;;13.00;82.60;;;;;;5175494;27;20042;-92
2021/06/13 03:19:55;;;;;;;11.25;5.05;;;12.90;82.70;;;;;;5175982;27;20397;-93
2021/06/13 03:22:21;;;;;;;11.80;5.55;;;12.90;82.60;;;;;;5175322;27;20069;-92
2021/06/13 03:24:49;;;;;;;11.05;5.70;;;12.90;82.30;;;;;;5175897;27;20125;-93
2021/06/13 03:27:16;;;;;;;12.90;5.20;;;12.80;82.20;;;;;;5162951;27;20078;-92
2021/06/13 03:29:45;;;;;;;13.18;5.88;;;12.80;82.40;;;;;;5157469;27;20057;-92
2021/06/13 03:32:12;;;;;;;9.95;5.72;;;12.80;82.60;;;;;;5175916;27;20050;-93
2021/06/13 03:34:42;;;;;;;12.13;5.28;;;12.80;82.70;;;;;;5174957;27;20099;-92
2021/06/13 03:37:10;;;;;;;10.30;5.50;;;12.70;82.60;;;;;;5175808;27;20046;-93
2021/06/13 03:39:37;;;;;;;11.88;5.55;;;12.70;82.20;;;;;;5175502;27;20049;-92
2021/06/13 03:42:04;;;;;;;12.20;6.10;;;12.70;82.20;;;;;;5175108;27;20046;-92
2021/06/13 03:44:31;;;;;;;10.23;5.50;;;12.70;82.40;;;;;;5174459;27;20501;-91
2021/06/13 03:46:58;;;;;;;10.90;5.30;;;12.60;82.50;;;;;;5175151;27;20129;-92
2021/06/13 03:49:25;;;;;;;9.52;5.32;;;12.60;82.70;;;;;;5171698;27;20046;-92
2021/06/13 03:51:51;;;;;;;11.10;5.38;;;12.60;82.60;;;;;;5154632;27;20047;-92
2021/06/13 03:54:17;;;;;;;10.77;5.68;;;12.60;82.80;;;;;;5155057;27;20047;-91
2021/06/13 03:56:51;;;;;;;12.02;5.43;;;12.60;82.90;;;;;;5155385;27;20042;-94
2021/06/13 03:59:21;;;;;;;14.07;5.57;;;12.50;82.60;;;;;;5154686;27;20067;-92
2021/06/13 04:01:48;;;;;;;10.73;5.25;;;12.50;82.60;;;;;;5154282;27;20493;-92
2021/06/13 04:04:18;;;;;;;11.10;5.65;;;12.50;82.50;;;;;;5154508;27;20051;-92
2021/06/13 04:06:47;;;;;;;10.15;5.25;;;12.50;82.80;;;;;;5154547;27;20049;-93
2021/06/13 04:09:14;;;;;;;10.00;5.30;;;12.40;82.70;;;;;;5158101;27;20098;-92
2021/06/13 04:11:42;;;;;;;11.48;5.38;;;12.40;82.80;;;;;;5174827;27;20153;-92
2021/06/13 04:14:11;;;;;;;12.95;5.90;;;12.40;82.90;;;;;;5175532;27;20043;-93
2021/06/13 04:16:39;;;;;;;11.80;5.60;;;12.40;83.40;;;;;;5179058;27;20058;-94
2021/06/13 04:19:06;;;;;;;13.63;5.28;;;12.40;83.80;;;;;;5179543;27;20050;-92
2021/06/13 04:21:32;;;;;;;9.35;5.03;;;12.40;83.90;;;;;;5178941;27;20053;-92
2021/06/13 04:23:59;;;;;;;13.45;5.32;;;12.30;83.50;;;;;;5178515;27;20042;-93
2021/06/13 04:26:26;;;;;;;9.98;5.28;;;12.30;83.40;;;;;;5178456;27;20098;-92
2021/06/13 04:28:51;;;;;;;12.27;5.82;;;12.30;83.20;;;;;;5178963;27;20125;-93
2021/06/13 04:31:18;;;;;;;10.75;5.20;;;12.30;83.30;;;;;;5178277;27;20137;-92
2021/06/13 04:33:46;;;;;;;10.82;5.00;;;12.30;83.50;;;;;;5178674;27;20503;-92
2021/06/13 04:36:14;;;;;;;10.48;5.25;;;12.30;83.70;;;;;;5179055;27;20070;-92
2021/06/13 04:38:41;;;;;;;10.57;5.25;;;12.30;83.80;;;;;;5177986;27;20125;-92
2021/06/13 04:41:08;;;;;;;9.52;5.28;;;12.30;83.50;;;;;;5178764;27;20097;-92
2021/06/13 04:43:35;;;;;;;9.48;5.63;;;12.30;83.00;;;;;;5178603;27;20050;-93
2021/06/13 04:46:02;;;;;;;13.63;6.43;;;12.30;83.00;;;;;;5178134;27;20438;-92
2021/06/13 04:48:28;;;;;;;10.73;5.53;;;12.30;83.00;;;;;;5178062;27;20046;-91
2021/06/13 04:50:57;;;;;;;11.55;5.50;;;12.20;82.60;;;;;;5160133;27;20396;-92
2021/06/13 04:53:47;;;;;;;12.30;5.40;;;12.20;82.90;;;;;;5156146;27;20047;-93
2021/06/13 04:56:44;;;;;;;12.80;5.85;;;12.20;82.50;;;;;;5161430;27;20042;-92
2021/06/13 04:59:09;;;;;;;12.73;5.85;;;12.20;82.40;;;;;;5160463;27;20050;-92
2021/06/13 05:01:38;;;;;;;10.93;5.57;;;12.20;83.10;;;;;;5175953;27;20555;-92
2021/06/13 05:04:04;;;;;;;9.75;5.50;;;12.20;83.30;;;;;;5158668;27;20050;-92
2021/06/13 05:06:30;;;;;;;10.82;5.68;;;12.20;83.10;;;;;;5157052;27;20054;-92
2021/06/13 05:08:56;;;;;;;9.07;5.40;;;12.20;82.80;;;;;;5157738;27;20409;-93
2021/06/13 05:11:21;;;;;;;10.15;5.25;;;12.20;83.10;;;;;;5157254;27;20047;-93
2021/06/13 05:13:47;;;;;;;9.52;5.10;;;12.30;83.30;;;;;;5157638;27;20490;-94
2021/06/13 05:16:13;;;;;;;9.98;5.22;;;12.30;82.70;;;;;;5157505;27;20050;-92
2021/06/13 05:18:39;;;;;;;10.70;5.25;;;12.30;82.80;;;;;;5157044;27;20546;-91
2021/06/13 05:21:04;;;;;;;13.07;6.00;;;12.30;83.00;;;;;;5156857;27;20516;-92
2021/06/13 05:23:30;;;;;;;11.40;5.65;;;12.30;82.90;;;;;;5157073;27;20078;-93
2021/06/13 05:25:58;;;;;;;14.45;6.85;;;12.40;83.20;;;;;;5163394;27;20047;-93
2021/06/13 05:28:23;;;;;;;19.95;7.32;;;12.40;83.60;;;;;;5178108;27;20090;-94
2021/06/13 05:30:50;;;;;;;13.50;6.25;;;12.50;84.60;;;;;;5177937;27;20046;-93
2021/06/13 05:33:16;;;;;;;11.73;5.68;;;12.50;84.30;;;;;;5178385;27;20042;-92
2021/06/13 05:35:43;;;;;;;11.75;6.18;;;12.50;83.70;;;;;;5178644;27;20050;-95
2021/06/13 05:38:09;;;;;;;11.30;5.15;;;12.60;84.00;;;;;;5178052;27;20150;-93
2021/06/13 05:40:36;;;;;;;13.98;6.18;;;12.60;83.50;;;;;;5178473;27;20046;-95
2021/06/13 05:43:03;;;;;;;11.30;5.40;;;12.60;83.80;;;;;;5178007;27;20042;-93
2021/06/13 05:45:31;;;;;;;11.40;5.32;;;12.60;83.60;;;;;;5177697;27;20525;-96
2021/06/13 05:47:58;;;;;;;14.48;6.75;;;12.70;83.20;;;;;;5177134;27;20069;-91
2021/06/13 05:50:24;;;;;;;13.82;6.43;;;12.70;83.90;;;;;;5177729;27;20171;-93
2021/06/13 05:52:50;;;;;;;13.00;5.97;;;12.70;83.90;;;;;;5178022;27;20052;-96
2021/06/13 05:55:19;;;;;;;13.02;5.40;;;12.70;83.50;;;;;;5177361;27;20054;-93
2021/06/13 05:57:46;;;;;;;11.48;5.30;;;12.80;83.40;;;;;;5157557;27;20110;-92
2021/06/13 06:00:18;;;;;;;18.63;7.05;;;12.80;83.50;;;;;;5156421;27;20047;-95
2021/06/13 06:02:46;;;;;;;12.32;5.40;;;12.80;84.30;;;;;;5157254;27;20056;-94
2021/06/13 06:05:13;;;;;;;11.45;5.53;;;12.90;84.40;;;;;;5158758;27;20039;-94
2021/06/13 06:07:39;;;;;;;18.73;7.40;;;13.00;83.90;;;;;;5179213;27;20050;-93
2021/06/13 06:10:07;;;;;;;19.83;6.65;;;13.00;84.40;;;;;;5176899;27;20054;-93
2021/06/13 06:12:33;;;;;;;10.63;5.97;;;13.10;84.70;;;;;;5177507;27;20054;-94
2021/06/13 06:14:59;;;;;;;14.65;6.43;;;13.10;84.40;;;;;;5178931;27;20105;-96
2021/06/13 06:17:25;;;;;;;17.52;6.45;;;13.10;84.60;;;;;;5178803;27;20042;-95
2021/06/13 06:19:51;;;;;;;14.30;5.70;;;13.20;84.20;;;;;;5173962;27;20049;-95
2021/06/13 06:22:16;;;;;;;14.90;6.47;;;13.20;83.70;;;;;;5157612;27;20432;-95
2021/06/13 06:24:42;;;;;;;12.68;5.30;;;13.30;84.20;;;;;;5157463;27;20068;-93
2021/06/13 06:27:08;;;;;;;13.50;5.70;;;13.40;84.00;;;;;;5173986;27;20140;-94
2021/06/13 06:29:34;;;;;;;15.38;6.03;;;13.50;83.20;;;;;;5178406;27;20084;-94
2021/06/13 06:31:59;;;;;;;14.80;5.75;;;13.50;83.30;;;;;;5167672;27;20042;-96
2021/06/13 06:34:26;;;;;;;15.90;5.80;;;13.60;83.80;;;;;;5181129;27;20542;-94
2021/06/13 06:36:51;;;;;;;13.05;4.97;;;13.70;83.70;;;;;;5177578;27;20056;-93
2021/06/13 06:39:18;;;;;;;10.70;4.78;;;13.80;83.30;;;;;;5177891;27;20050;-93
2021/06/13 06:41:48;;;;;;;14.52;5.10;;;14.00;82.90;;;;;;5177758;27;20050;-94
2021/06/13 06:44:13;;;;;;;15.18;4.85;;;14.10;82.60;;;;;;5169425;27;20115;-91
2021/06/13 06:46:40;;;;;;;12.63;4.68;;;14.10;81.60;;;;;;5164382;27;20494;-93
2021/06/13 06:49:06;;;;;;;13.30;5.05;;;14.20;81.10;;;;;;5154663;27;20096;-87
2021/06/13 06:51:33;;;;;;;13.93;5.25;;;14.40;81.30;;;;;;5153850;27;20153;-86
2021/06/13 06:53:59;;;;;;;16.77;5.38;;;14.50;81.40;;;;;;5154569;27;20047;-89
2021/06/13 06:56:25;;;;;;;13.52;5.38;;;14.60;80.70;;;;;;5158385;27;20083;-86
2021/06/13 06:58:51;;;;;;;13.05;4.80;;;14.70;80.30;;;;;;5163269;27;20050;-88
2021/06/13 07:01:17;;;;;;;11.48;4.32;;;14.80;80.10;;;;;;5165094;27;20045;-88
2021/06/13 07:03:43;;;;;;;12.15;4.82;;;14.80;78.50;;;;;;5159289;27;20546;-86
2021/06/13 07:06:08;;;;;;;10.45;4.82;;;14.90;78.00;;;;;;5153914;27;20050;-86
2021/06/13 07:08:34;;;;;;;12.30;4.50;;;15.10;78.40;;;;;;5157791;27;20049;-86
2021/06/13 07:11:00;;;;;;;12.10;4.60;;;15.20;78.60;;;;;;5155503;27;20038;-85
2021/06/13 07:13:26;;;;;;;14.35;4.30;;;15.30;77.40;;;;;;5164514;27;20039;-87
2021/06/13 07:15:51;;;;;;;11.25;4.30;;;15.40;77.50;;;;;;5153518;27;20050;-86
2021/06/13 07:18:18;;;;;;;13.30;4.65;;;15.50;77.00;;;;;;5154118;27;20051;-93
2021/06/13 07:20:43;;;;;;;10.68;3.90;;;15.60;76.50;;;;;;5157946;27;20103;-88
2021/06/13 07:23:09;;;;;;;11.00;4.53;;;15.70;76.20;;;;;;5155624;27;20050;-88
2021/06/13 07:25:35;;;;;;;10.55;3.95;;;15.80;75.90;;;;;;5155837;27;20069;-86
2021/06/13 07:28:04;;;;;;;11.45;4.72;;;15.90;76.40;;;;;;5154082;27;20474;-95
2021/06/13 07:30:30;;;;;;;11.27;4.50;;;16.00;75.70;;;;;;5159906;27;20149;-87
2021/06/13 07:32:56;;;;;;;10.52;4.00;;;16.10;75.10;;;;;;5161289;27;20529;-87
2021/06/13 07:35:22;;;;;;;9.55;4.28;;;16.20;75.00;;;;;;5163552;27;20082;-87
2021/06/13 07:37:48;;;;;;;10.18;3.80;;;16.30;74.60;;;;;;5166957;27;20074;-88
2021/06/13 07:40:15;;;;;;;10.98;3.65;;;16.40;72.70;;;;;;5165428;27;20544;-88
2021/06/13 07:42:42;;;;;;;9.82;3.85;;;16.50;72.50;;;;;;5166019;27;20073;-89
2021/06/13 07:45:11;;;;;;;9.95;4.10;;;16.60;71.70;;;;;;5164512;27;20473;-88
2021/06/13 07:47:38;;;;;;;10.93;4.22;;;16.70;72.50;;;;;;5162014;27;20445;-89
2021/06/13 07:50:10;;;;;;;9.35;3.95;;;16.80;74.60;;;;;;5164457;27;20043;-87
2021/06/13 07:52:36;;;;;;;11.07;4.38;;;17.00;74.30;;;;;;5181779;27;20053;-88
2021/06/13 07:55:05;;;;;;;11.48;3.95;;;17.10;74.70;;;;;;5180551;27;20121;-92
2021/06/13 07:57:31;;;;;;;10.20;4.20;;;17.20;73.90;;;;;;5179714;27;20053;-87
2021/06/13 07:59:56;;;;;;;9.95;3.75;;;17.30;73.40;;;;;;5181276;27;20042;-92
2021/06/13 08:02:22;;;;;;;9.20;3.50;;;17.40;72.00;;;;;;5183692;27;20512;-95
2021/06/13 08:04:53;;;;;;;9.65;3.47;;;17.50;71.20;;;;;;5180996;27;20419;-95
2021/06/13 08:07:19;;;;;;;10.88;4.38;;;17.60;70.60;;;;;;5177893;27;20054;-92
2021/06/13 08:09:45;;;;;;;9.25;4.13;;;17.70;71.10;;;;;;5180425;27;20049;-92
2021/06/13 08:12:11;;;;;;;8.27;3.72;;;17.80;71.60;;;;;;5170180;27;20490;-93
2021/06/13 08:14:37;;;;;;;7.28;3.50;;;17.90;73.00;;;;;;5174558;27;20042;-94
2021/06/13 08:17:03;;;;;;;8.32;3.67;;;18.00;73.50;;;;;;5169559;27;20103;-95
2021/06/13 08:19:30;;;;;;;11.20;4.20;;;18.10;73.50;;;;;;5162255;27;20051;-93
2021/06/13 08:21:56;;;;;;;10.30;4.43;;;18.20;71.10;;;;;;5166310;27;20435;-93
2021/06/13 08:24:21;;;;;;;9.27;3.75;;;18.30;70.10;;;;;;5175725;27;20053;-93
2021/06/13 08:26:47;;;;;;;8.73;3.83;;;18.40;70.40;;;;;;5178073;27;20370;-92
2021/06/13 08:29:14;;;;;;;12.88;4.40;;;18.50;71.10;;;;;;5174807;27;20046;-92
2021/06/13 08:31:40;;;;;;;9.85;3.90;;;18.60;69.40;;;;;;5179582;27;20152;-90
2021/06/13 08:34:06;;;;;;;8.68;3.80;;;18.70;68.60;;;;;;5163101;27;20485;-91
2021/06/13 08:36:31;;;;;;;11.18;4.13;;;18.70;71.00;;;;;;5172989;27;20066;-87
2021/06/13 08:38:57;;;;;;;12.88;4.45;;;18.90;69.20;;;;;;5179189;27;20431;-94
2021/06/13 08:41:24;;;;;;;10.52;3.95;;;18.90;69.70;;;;;;5179443;27;20050;-93
2021/06/13 08:43:51;;;;;;;9.68;4.20;;;19.00;68.90;;;;;;5179930;27;20042;-92
2021/06/13 08:46:17;;;;;;;11.13;4.03;;;19.10;67.60;;;;;;5180228;27;20054;-96
2021/06/13 08:48:47;;;;;;;10.82;4.07;;;19.20;66.70;;;;;;5179630;27;20091;-94
2021/06/13 08:51:14;;;;;;;9.25;4.53;;;19.30;65.20;;;;;;5179892;27;20446;-94
2021/06/13 08:53:44;;;;;;;12.30;4.43;;;19.30;65.40;;;;;;5176556;27;20038;-87
2021/06/13 08:56:15;;;;;;;11.45;3.78;;;19.40;65.30;;;;;;5157392;27;20051;-94
2021/06/13 08:58:44;;;;;;;11.30;4.53;;;19.50;64.60;;;;;;5157645;27;20334;-91
2021/06/13 09:01:14;;;;;;;11.18;4.13;;;19.50;65.80;;;;;;5156975;27;20059;-92
2021/06/13 09:03:41;;;;;;;9.57;3.70;;;19.60;66.60;;;;;;5158149;27;20482;-92
2021/06/13 09:06:08;;;;;;;11.35;4.00;;;19.70;65.50;;;;;;5156826;27;20485;-93
2021/06/13 09:08:38;;;;;;;12.02;4.40;;;19.80;65.90;;;;;;5171107;27;20039;-95
2021/06/13 09:11:05;;;;;;;10.93;3.95;;;19.90;66.80;;;;;;5160634;27;20046;-88
2021/06/13 09:13:32;;;;;;;9.18;3.38;;;20.00;63.80;;;;;;5165755;27;20098;-89
2021/06/13 09:16:00;;;;;;;10.85;3.72;;;20.00;62.90;;;;;;5171013;27;20049;-88
2021/06/13 09:18:40;;;;;;;11.63;3.72;;;20.10;66.30;;;;;;5178284;27;20053;-90
2021/06/13 09:21:30;;;;;;;10.48;3.70;;;20.20;64.00;;;;;;5156732;27;20047;-88
2021/06/13 09:23:56;;;;;;;7.55;3.70;;;20.20;62.20;;;;;;5156789;27;20131;-91
2021/06/13 09:26:26;;;;;;;8.88;3.78;;;20.40;62.10;;;;;;5156227;27;20043;-92
2021/06/13 09:28:53;;;;;;;10.88;3.95;;;20.40;62.70;;;;;;5158008;27;20095;-93
2021/06/13 09:31:20;;;;;;;11.40;4.10;;;20.50;63.90;;;;;;5158287;27;20049;-94
2021/06/13 09:33:49;;;;;;;10.85;4.32;;;20.60;63.10;;;;;;5157442;27;20043;-93
2021/06/13 09:36:20;;;;;;;11.32;4.30;;;20.60;63.20;;;;;;5157473;27;20466;-93
2021/06/13 09:38:47;;;;;;;12.55;3.92;;;20.70;62.40;;;;;;5157699;27;20047;-92
2021/06/13 09:41:19;;;;;;;11.90;4.25;;;20.70;60.10;;;;;;5177612;27;20122;-92
2021/06/13 09:43:51;;;;;;;10.27;4.45;;;20.70;60.30;;;;;;5177477;27;20050;-91
2021/06/13 09:46:22;;;;;;;12.47;3.70;;;20.80;60.20;;;;;;5174015;27;20125;-89
2021/06/13 09:48:56;;;;;;;11.43;3.65;;;20.80;60.10;;;;;;5175161;27;20038;-89
2021/06/13 09:51:22;;;;;;;;;;;20.90;61.30;;;;;;5177425;27;20049;-89
2021/06/13 09:53:50;;;;;;;10.80;3.58;;;20.90;62.20;;;;;;5177133;27;19926;-90
2021/06/13 09:56:23;;;;;;;10.55;4.10;;;21.00;60.50;;;;;;5162866;27;20130;-90
2021/06/13 09:58:55;;;;;;;;;;;21.10;62.20;;;;;;5156954;27;20121;-92
2021/06/13 10:01:24;;;;;;;9.93;3.97;;;21.10;60.80;;;;;;5155177;27;19986;-93
2021/06/13 10:03:49;;;;;;;10.95;4.00;;;21.20;62.20;;;;;;5167113;27;20056;-92
2021/06/13 10:06:19;;;;;;;10.30;4.20;;;21.30;61.30;;;;;;5156851;27;20051;-90
2021/06/13 10:08:48;;;;;;;7.85;3.85;;;21.40;60.20;;;;;;5156632;27;20050;-91
2021/06/13 10:11:15;;;;;;;11.75;3.80;;;21.40;60.10;;;;;;5156314;27;20039;-92
2021/06/13 10:14:00;;;;;;;9.98;4.13;;;21.50;59.10;;;;;;5159987;27;20076;-89
2021/06/13 10:16:27;;;;;;;12.15;4.18;;;21.50;60.00;;;;;;5176729;27;20057;-92
2021/06/13 10:19:02;;;;;;;10.70;4.00;;;21.60;59.50;;;;;;5173615;27;20062;-88
2021/06/13 10:21:35;;;;;;;11.18;4.30;;;21.70;57.90;;;;;;5166302;27;20103;-91
2021/06/13 10:24:03;;;;;;;9.48;4.05;;;21.60;58.80;;;;;;5164870;27;20038;-95
2021/06/13 10:26:28;;;;;;;10.80;4.28;;;21.70;59.20;;;;;;5174162;27;20161;-90
2021/06/13 10:28:54;;;;;;;12.02;4.55;;;21.70;60.30;;;;;;5165750;27;20055;-92
2021/06/13 10:31:20;;;;;;;11.63;4.20;;;21.80;59.90;;;;;;5171286;27;20038;-93
2021/06/13 10:33:46;;;;;;;9.98;4.20;;;21.80;61.10;;;;;;5176898;27;20038;-92
2021/06/13 10:36:14;;;;;;;10.60;4.35;;;22.00;59.10;;;;;;5156693;27;20050;-95
2021/06/13 10:38:41;;;;;;;10.80;4.10;;;22.10;60.40;;;;;;5156679;27;20039;-93
2021/06/13 10:41:07;;;;;;;11.88;4.40;;;22.10;59.00;;;;;;5156014;27;20042;-91
2021/06/13 10:43:33;;;;;;;13.82;4.60;;;22.20;57.30;;;;;;5155252;27;20095;-94
2021/06/13 10:46:17;;;;;;;8.93;4.07;;;22.00;58.40;;;;;;5156120;27;20106;-93
2021/06/13 10:48:50;;;;;;;11.32;4.70;;;22.00;58.00;;;;;;5155325;27;20046;-86
2021/06/13 10:51:26;;;;;;;;;;;22.10;58.80;;;;;;5155290;27;20106;-93
2021/06/13 10:53:51;;;;;;;9.07;4.25;;;22.10;57.70;;;;;;5156944;27;19919;-93
2021/06/13 10:56:25;;;;;;;9.77;3.90;;;22.10;59.50;;;;;;5172852;27;20045;-89
2021/06/13 10:58:57;;;;;;;9.35;4.07;;;22.10;59.20;;;;;;5155037;27;20047;-92
2021/06/13 11:01:26;;;;;;;9.40;4.18;;;22.20;58.00;;;;;;5156040;27;20119;-94
2021/06/13 11:04:06;;;;;;;10.48;4.35;;;22.30;56.80;;;;;;5156437;27;20382;-93
2021/06/13 11:06:48;;;;;;;10.90;3.97;;;22.30;60.30;;;;;;5166803;27;20043;-90
2021/06/13 11:09:17;;;;;;;11.73;4.17;;;22.50;60.50;;;;;;5179489;27;20050;-96
2021/06/13 11:11:44;;;;;;;9.82;4.25;;;22.60;59.10;;;;;;5157971;27;20058;-87
2021/06/13 11:14:24;;;;;;;9.63;4.18;;;22.60;56.70;;;;;;5155108;27;20046;-89
2021/06/13 11:16:50;;;;;;;9.70;3.78;;;22.50;57.40;;;;;;5154995;27;20070;-91
2021/06/13 11:19:28;;;;;;;11.20;4.53;;;22.50;57.40;;;;;;5154855;27;20050;-91
2021/06/13 11:22:19;;;;;;;9.82;4.00;;;22.60;57.00;;;;;;5155147;27;20099;-93
2021/06/13 11:24:50;;;;;;;13.50;4.38;;;22.60;58.80;;;;;;5154662;27;20084;-93
2021/06/13 11:27:16;;;;;;;9.90;4.05;;;22.70;58.10;;;;;;5154626;27;20046;-93
2021/06/13 11:29:51;;;;;;;9.15;3.95;;;22.80;56.70;;;;;;5159637;27;20077;-94
2021/06/13 11:32:37;;;;;;;10.43;3.72;;;22.80;58.00;;;;;;5176435;27;20453;-94
2021/06/13 11:35:22;;;;;;;10.20;4.10;;;22.90;56.40;;;;;;5175888;27;20489;-91
2021/06/13 11:37:48;;;;;;;9.13;3.72;;;22.90;56.60;;;;;;5166212;27;20062;-89
2021/06/13 11:40:30;;;;;;;11.02;4.10;;;23.00;56.40;;;;;;5154034;27;20050;-89
2021/06/13 11:43:15;;;;;;;10.55;3.85;;;23.00;56.70;;;;;;5154956;27;20058;-93
2021/06/13 11:46:05;;;;;;;11.45;4.10;;;23.10;57.00;;;;;;5154660;27;20046;-93
2021/06/13 11:48:37;;;;;;;10.38;4.30;;;23.20;56.70;;;;;;5154526;27;20372;-93
2021/06/13 11:51:09;;;;;;;9.95;3.75;;;23.20;57.00;;;;;;5156162;27;20050;-93
2021/06/13 11:53:53;;;;;;;13.00;3.83;;;23.30;56.40;;;;;;5154951;27;20474;-95
2021/06/13 11:56:40;;;;;;;9.18;3.85;;;23.40;56.40;;;;;;5155100;27;20050;-93
2021/06/13 11:59:18;;;;;;;10.27;4.03;;;23.40;56.60;;;;;;5154995;27;20046;-92
2021/06/13 12:01:51;;;;;;;10.45;3.55;;;23.60;54.00;;;;;;5153810;27;20094;-93
2021/06/13 12:04:17;;;;;;;10.32;4.03;;;23.60;53.40;;;;;;5154798;27;20050;-92
2021/06/13 12:06:43;;;;;;;9.75;3.67;;;23.60;53.20;;;;;;5154442;27;20039;-93
2021/06/13 12:09:17;;;;;;;12.20;3.80;;;23.70;53.70;;;;;;5155503;27;20061;-92
2021/06/13 12:11:45;;;;;;;12.57;4.25;;;23.70;54.00;;;;;;5175600;27;20046;-90
2021/06/13 12:14:35;;;;;;;10.05;3.58;;;23.70;53.80;;;;;;5175466;27;20114;-91
2021/06/13 12:17:05;;;;;;;9.85;4.18;;;23.60;54.10;;;;;;5174722;27;20053;-92
2021/06/13 12:19:44;;;;;;;10.40;3.90;;;23.70;54.00;;;;;;5175470;27;20046;-93
2021/06/13 12:27:32;;;;;;;;;;;23.80;54.80;;;;;;5167002;27;20049;-90
2021/06/13 12:30:08;;;;;;;10.35;3.65;;;23.70;55.30;;;;;;5173467;27;19919;-91
2021/06/13 12:32:33;;;;;;;11.40;3.83;;;23.80;52.00;;;;;;5155143;27;20125;-91
2021/06/13 12:35:08;;;;;;;10.63;3.85;;;23.90;52.30;;;;;;5166804;27;20072;-91
2021/06/13 12:37:35;;;;;;;9.20;3.83;;;24.00;54.30;;;;;;5170468;27;20446;-90
2021/06/13 12:40:12;;;;;;;9.15;3.35;;;24.00;53.00;;;;;;5172700;27;20042;-92
2021/06/13 12:42:39;;;;;;;7.25;3.08;;;24.00;50.90;;;;;;5174287;27;20038;-92
2021/06/13 12:45:12;;;;;;;7.38;3.28;;;24.10;52.00;;;;;;5172443;27;20133;-93
2021/06/13 12:47:39;;;;;;;8.57;3.30;;;24.20;51.00;;;;;;5171813;27;20055;-91
2021/06/13 12:50:08;;;;;;;11.13;3.33;;;24.20;50.30;;;;;;5166135;27;20098;-92
2021/06/13 12:52:36;;;;;;;8.57;3.60;;;24.20;49.90;;;;;;5160124;27;20555;-88
2021/06/13 12:55:05;;;;;;;7.25;3.25;;;24.10;49.80;;;;;;5157963;27;20087;-91